createdAt,value
2022-12-03T00:01:14.194Z,-2.11
2022-12-03T00:03:40.996Z,-2.16
2022-12-03T00:06:07.849Z,-2.16
2022-12-03T00:08:34.968Z,-2.17
2022-12-03T00:11:01.459Z,-2.20
2022-12-03T00:13:28.022Z,-2.19
2022-12-03T00:15:54.566Z,-2.27
2022-12-03T00:18:21.116Z,-2.26
2022-12-03T00:20:47.703Z,-2.26
2022-12-03T00:23:14.198Z,-2.19
2022-12-03T00:25:40.667Z,-2.18
2022-12-03T00:28:07.669Z,-2.24
2022-12-03T00:30:34.200Z,-2.22
2022-12-03T00:33:00.728Z,-2.15
2022-12-03T00:35:27.258Z,-2.03
2022-12-03T00:37:54.690Z,-1.98
2022-12-03T00:40:21.211Z,-1.94
2022-12-03T00:42:47.719Z,-1.92
2022-12-03T00:45:14.286Z,-1.90
2022-12-03T00:47:40.776Z,-1.84
2022-12-03T00:50:08.298Z,-1.90
2022-12-03T00:52:34.826Z,-1.88
2022-12-03T00:55:01.380Z,-1.97
2022-12-03T00:57:27.898Z,-1.98
2022-12-03T00:59:54.379Z,-1.95
2022-12-03T01:02:21.033Z,-1.92
2022-12-03T01:04:47.761Z,-1.87
2022-12-03T01:07:14.489Z,-1.87
2022-12-03T01:09:40.961Z,-1.94
2022-12-03T01:12:07.491Z,-1.89
2022-12-03T01:14:34.052Z,-1.89
2022-12-03T01:17:00.570Z,-1.81
2022-12-03T01:19:27.194Z,-1.78
2022-12-03T01:21:54.852Z,-1.69
2022-12-03T01:24:21.811Z,-1.79
2022-12-03T01:26:48.437Z,-1.70
2022-12-03T01:29:15.048Z,-1.80
2022-12-03T01:32:00.201Z,-1.79
2022-12-03T01:34:26.696Z,-1.77
2022-12-03T01:36:53.220Z,-1.84
2022-12-03T01:39:20.520Z,-1.77
2022-12-03T01:41:48.841Z,-1.79
2022-12-03T01:44:19.300Z,-1.80
2022-12-03T01:46:46.662Z,-1.80
2022-12-03T01:49:41.755Z,-1.76
2022-12-03T01:52:17.292Z,-1.76
2022-12-03T01:54:59.144Z,-1.76
2022-12-03T01:57:45.130Z,-1.69
2022-12-03T02:00:16.909Z,-1.69
2022-12-03T02:02:43.574Z,-1.69
2022-12-03T02:05:22.438Z,-1.64
2022-12-03T02:07:49.302Z,-1.66
2022-12-03T02:10:18.843Z,-1.63
2022-12-03T02:12:52.105Z,-1.63
2022-12-03T02:15:18.703Z,-1.58
2022-12-03T02:17:45.443Z,-1.63
2022-12-03T02:20:12.956Z,-1.53
2022-12-03T02:22:59.716Z,-1.56
2022-12-03T05:58:41.424Z,-1.71
2022-12-03T06:01:08.384Z,-1.67
2022-12-03T06:03:35.049Z,-1.63
2022-12-03T06:06:02.272Z,-1.56
2022-12-03T06:08:28.738Z,-1.53
2022-12-03T06:10:55.204Z,-1.60
2022-12-03T06:13:21.696Z,-1.55
2022-12-03T06:15:48.328Z,-1.53
2022-12-03T06:18:15.018Z,-1.49
2022-12-03T06:20:41.485Z,-1.47
2022-12-03T06:23:08.148Z,-1.48
2022-12-03T06:25:34.718Z,-1.45
2022-12-03T06:28:01.193Z,-1.48
2022-12-03T06:30:27.760Z,-1.46
2022-12-03T06:32:54.307Z,-1.46
2022-12-03T06:35:20.829Z,-1.49
2022-12-03T06:37:47.440Z,-1.43
2022-12-03T06:40:14.230Z,-1.40
2022-12-03T06:42:40.713Z,-1.36
2022-12-03T06:45:07.379Z,-1.35
2022-12-03T06:47:33.926Z,-1.35
2022-12-03T06:50:00.561Z,-1.30
2022-12-03T06:52:27.152Z,-1.32
2022-12-03T06:54:53.973Z,-1.27
2022-12-03T06:57:20.784Z,-1.32
2022-12-03T06:59:47.314Z,-1.33
2022-12-03T07:02:13.891Z,-1.24
2022-12-03T07:04:44.848Z,-1.21
2022-12-03T07:07:12.953Z,-1.19
2022-12-03T07:09:39.460Z,-1.21
2022-12-03T07:12:06.121Z,-1.16
2022-12-03T07:14:32.663Z,-1.17
2022-12-03T07:16:59.259Z,-1.20
2022-12-03T07:19:32.079Z,-1.20
2022-12-03T07:21:59.240Z,-1.13
2022-12-03T07:24:25.730Z,-1.11
2022-12-03T07:26:52.208Z,-1.13
2022-12-03T07:29:18.819Z,-1.15
2022-12-03T07:31:45.415Z,-1.12
2022-12-03T07:34:12.008Z,-1.09
2022-12-03T07:36:38.604Z,-1.03
2022-12-03T07:39:05.378Z,-0.97
2022-12-03T07:41:32.021Z,-0.95
2022-12-03T07:43:58.652Z,-0.89
2022-12-03T07:46:25.218Z,-0.92
2022-12-03T07:48:51.755Z,-0.91
2022-12-03T07:51:18.283Z,-0.82
2022-12-03T07:53:44.783Z,-0.89
2022-12-03T07:56:11.279Z,-0.79
2022-12-03T07:58:37.964Z,-0.86
2022-12-03T08:01:04.538Z,-0.81
2022-12-03T08:03:31.147Z,-0.82
2022-12-03T08:05:57.667Z,-0.76
2022-12-03T08:08:24.200Z,-0.76
2022-12-03T08:10:50.739Z,-0.72
2022-12-03T08:13:18.790Z,-0.77
2022-12-03T08:15:46.413Z,-0.73
2022-12-03T08:18:16.493Z,-0.72
2022-12-03T08:20:45.207Z,-0.65
2022-12-03T08:23:22.507Z,-0.60
2022-12-03T08:25:50.917Z,-0.61
2022-12-03T08:28:23.015Z,-0.60
2022-12-03T08:31:05.626Z,-0.56
2022-12-03T08:33:35.352Z,-0.51
2022-12-03T08:36:29.598Z,-0.55
2022-12-03T08:39:05.275Z,-0.51
2022-12-03T08:41:50.792Z,-0.46
2022-12-03T08:44:27.827Z,-0.42
2022-12-03T08:47:05.361Z,-0.48
2022-12-03T08:49:32.273Z,-0.46
2022-12-03T08:52:01.773Z,-0.46
2022-12-03T08:54:28.452Z,-0.42
2022-12-03T08:56:55.261Z,-0.44
2022-12-03T08:59:45.385Z,-0.42
2022-12-03T09:02:28.784Z,-0.48
2022-12-03T09:04:55.748Z,-0.58
2022-12-03T09:07:22.553Z,-0.57
2022-12-03T09:09:49.260Z,-0.50
2022-12-03T09:12:15.791Z,-0.44
2022-12-03T09:14:42.271Z,-0.39
2022-12-03T09:17:08.842Z,-0.42
2022-12-03T09:19:35.465Z,-0.44
2022-12-03T09:22:01.966Z,-0.40
2022-12-03T09:24:28.440Z,-0.49
2022-12-03T09:26:55.038Z,-0.49
2022-12-03T09:29:21.539Z,-0.47
2022-12-03T09:31:48.182Z,-0.50
2022-12-03T09:34:14.800Z,-0.41
2022-12-03T09:36:41.354Z,-0.38
2022-12-03T09:39:07.932Z,-0.36
2022-12-03T09:41:34.572Z,-0.42
2022-12-03T09:44:04.446Z,-0.38
2022-12-03T09:46:32.585Z,-0.37
2022-12-03T09:49:00.580Z,-0.34
2022-12-03T09:51:34.411Z,-0.35
2022-12-03T09:54:04.677Z,-0.32
2022-12-03T09:56:31.797Z,-0.33
2022-12-03T09:58:58.610Z,-0.29
2022-12-03T10:01:29.962Z,-0.31
2022-12-03T10:03:56.972Z,-0.35
2022-12-03T10:06:24.139Z,-0.43
2022-12-03T10:08:54.452Z,-0.39
2022-12-03T10:11:24.240Z,-0.46
2022-12-03T10:13:51.481Z,-0.47
2022-12-03T10:16:21.043Z,-0.47
2022-12-03T10:18:52.146Z,-0.57
2022-12-03T10:21:36.479Z,-0.51
2022-12-03T10:24:19.878Z,-0.52
2022-12-03T10:26:47.822Z,-0.57
2022-12-03T10:29:18.110Z,-0.53
2022-12-03T10:31:45.369Z,-0.50
2022-12-03T10:34:12.189Z,-0.62
2022-12-03T10:36:38.807Z,-0.70
2022-12-03T10:39:09.731Z,-0.62
2022-12-03T10:41:38.056Z,-0.63
2022-12-03T11:00:44.148Z,-0.68
2022-12-03T11:03:40.102Z,-0.76
2022-12-03T11:06:07.044Z,-0.77
2022-12-03T11:08:36.572Z,-0.71
2022-12-03T11:11:26.048Z,-0.73
2022-12-03T11:14:01.280Z,-0.71
2022-12-03T11:16:39.936Z,-0.70
2022-12-03T11:19:12.751Z,-0.72
2022-12-03T15:07:45.869Z,-2.14
2022-12-03T15:10:19.450Z,-2.10
2022-12-03T15:12:54.079Z,-2.08
2022-12-03T15:15:21.824Z,-2.07
2022-12-03T15:24:20.884Z,-2.08
2022-12-03T15:26:47.639Z,-2.09
2022-12-03T15:29:20.664Z,-2.11
2022-12-03T15:31:47.415Z,-2.08
2022-12-03T15:34:46.226Z,-2.07
2022-12-03T15:42:41.374Z,-2.04
2022-12-03T15:45:12.053Z,-2.06
2022-12-03T15:47:41.755Z,-2.11
2022-12-03T15:50:08.869Z,-2.14
2022-12-03T15:58:04.509Z,-2.13
2022-12-03T16:00:33.624Z,-2.12
2022-12-03T16:03:00.214Z,-2.18
2022-12-03T16:05:27.987Z,-2.14
2022-12-03T16:07:54.950Z,-2.17
2022-12-03T16:10:21.561Z,-2.19
2022-12-03T16:12:50.530Z,-2.23
2022-12-03T16:15:20.995Z,-2.24
2022-12-03T16:17:50.181Z,-2.25
2022-12-03T16:20:28.960Z,-2.27
2022-12-03T16:23:28.039Z,-2.29
2022-12-03T16:25:58.992Z,-2.22
2022-12-03T16:28:36.292Z,-2.24
2022-12-03T16:31:02.888Z,-2.23
2022-12-03T16:33:32.159Z,-2.22
2022-12-03T16:36:35.966Z,-2.19
2022-12-03T16:42:28.588Z,-2.12
2022-12-03T16:45:46.415Z,-2.09
2022-12-03T16:48:27.199Z,-2.19
2022-12-03T16:50:54.770Z,-2.15
2022-12-03T16:53:33.432Z,-2.13
2022-12-03T16:56:00.316Z,-2.14
2022-12-03T16:58:27.023Z,-2.15
2022-12-03T17:00:54.230Z,-2.20
2022-12-03T17:03:22.652Z,-2.19
2022-12-03T17:05:49.561Z,-2.23
2022-12-03T17:08:16.660Z,-2.24
2022-12-03T17:10:44.168Z,-2.19
2022-12-03T17:13:11.117Z,-2.20
2022-12-03T17:15:38.661Z,-2.13
2022-12-03T17:18:05.705Z,-2.11
2022-12-03T17:20:33.379Z,-2.15
2022-12-03T17:23:00.326Z,-2.14
2022-12-03T17:25:27.700Z,-2.10
2022-12-03T17:27:54.364Z,-2.13
2022-12-03T17:30:20.892Z,-2.12
2022-12-03T17:32:48.801Z,-2.09
2022-12-03T17:35:15.361Z,-2.16
2022-12-03T17:37:41.983Z,-2.16
2022-12-03T17:40:10.519Z,-2.15
2022-12-03T17:42:37.166Z,-2.12
2022-12-03T17:45:04.076Z,-2.13
2022-12-03T17:47:30.755Z,-2.13
2022-12-03T17:49:57.802Z,-2.12
2022-12-03T17:52:24.372Z,-2.15
2022-12-03T17:57:37.403Z,-2.08
2022-12-03T18:00:04.559Z,-2.06
2022-12-03T18:02:31.039Z,-2.07
2022-12-03T18:04:57.570Z,-2.12
2022-12-03T18:07:24.093Z,-2.05
2022-12-03T18:09:50.579Z,-2.06
2022-12-03T18:12:17.250Z,-2.03
2022-12-03T18:14:43.760Z,-2.02
